sensor_id;sensor_type;location;lat;lon;timestamp;P1;durP1;ratioP1;P2;durP2;ratioP2
15990;SDS011;8100;50.994;4.538;2023-01-31T00:01:09;18.20;;;5.32;;
15990;SDS011;8100;50.994;4.538;2023-01-31T00:03:58;21.55;;;5.82;;
15990;SDS011;8100;50.994;4.538;2023-01-31T00:06:47;15.20;;;5.50;;
15990;SDS011;8100;50.994;4.538;2023-01-31T00:09:36;14.75;;;4.90;;
15990;SDS011;8100;50.994;4.538;2023-01-31T00:12:23;15.98;;;5.03;;
15990;SDS011;8100;50.994;4.538;2023-01-31T00:15:12;19.10;;;5.20;;
15990;SDS011;8100;50.994;4.538;2023-01-31T00:18:02;19.63;;;5.85;;
15990;SDS011;8100;50.994;4.538;2023-01-31T00:20:49;17.23;;;5.03;;
15990;SDS011;8100;50.994;4.538;2023-01-31T00:23:37;15.70;;;4.82;;
15990;SDS011;8100;50.994;4.538;2023-01-31T00:26:25;16.48;;;4.75;;
15990;SDS011;8100;50.994;4.538;2023-01-31T00:29:14;19.20;;;5.00;;
15990;SDS011;8100;50.994;4.538;2023-01-31T00:32:03;18.25;;;4.82;;
15990;SDS011;8100;50.994;4.538;2023-01-31T00:34:50;17.48;;;5.63;;
15990;SDS011;8100;50.994;4.538;2023-01-31T00:37:38;15.38;;;4.75;;
15990;SDS011;8100;50.994;4.538;2023-01-31T00:40:25;15.85;;;4.63;;
15990;SDS011;8100;50.994;4.538;2023-01-31T00:43:12;16.65;;;4.97;;
15990;SDS011;8100;50.994;4.538;2023-01-31T00:45:59;16.02;;;5.50;;
15990;SDS011;8100;50.994;4.538;2023-01-31T00:48:48;15.93;;;5.03;;
15990;SDS011;8100;50.994;4.538;2023-01-31T00:51:36;17.35;;;5.22;;
15990;SDS011;8100;50.994;4.538;2023-01-31T00:54:23;17.38;;;4.90;;
15990;SDS011;8100;50.994;4.538;2023-01-31T00:57:10;21.58;;;5.55;;
15990;SDS011;8100;50.994;4.538;2023-01-31T00:59:57;17.92;;;5.05;;
15990;SDS011;8100;50.994;4.538;2023-01-31T01:02:44;18.27;;;5.50;;
15990;SDS011;8100;50.994;4.538;2023-01-31T01:05:33;17.20;;;5.07;;
15990;SDS011;8100;50.994;4.538;2023-01-31T01:08:20;16.90;;;4.95;;
15990;SDS011;8100;50.994;4.538;2023-01-31T01:11:12;12.75;;;4.53;;
15990;SDS011;8100;50.994;4.538;2023-01-31T01:14:01;18.00;;;5.00;;
15990;SDS011;8100;50.994;4.538;2023-01-31T01:16:48;16.25;;;5.15;;
15990;SDS011;8100;50.994;4.538;2023-01-31T01:19:35;16.90;;;4.68;;
15990;SDS011;8100;50.994;4.538;2023-01-31T01:22:24;19.10;;;5.20;;
15990;SDS011;8100;50.994;4.538;2023-01-31T01:25:11;19.92;;;5.25;;
15990;SDS011;8100;50.994;4.538;2023-01-31T01:27:58;12.25;;;4.40;;
15990;SDS011;8100;50.994;4.538;2023-01-31T01:30:46;16.67;;;5.20;;
15990;SDS011;8100;50.994;4.538;2023-01-31T01:33:33;18.70;;;4.93;;
15990;SDS011;8100;50.994;4.538;2023-01-31T01:36:20;17.15;;;4.78;;
15990;SDS011;8100;50.994;4.538;2023-01-31T01:39:11;15.70;;;4.63;;
15990;SDS011;8100;50.994;4.538;2023-01-31T01:41:58;15.98;;;4.95;;
15990;SDS011;8100;50.994;4.538;2023-01-31T01:44:47;15.00;;;4.72;;
15990;SDS011;8100;50.994;4.538;2023-01-31T01:47:38;14.15;;;4.57;;
15990;SDS011;8100;50.994;4.538;2023-01-31T01:50:31;17.20;;;4.88;;
15990;SDS011;8100;50.994;4.538;2023-01-31T01:53:22;14.98;;;3.95;;
15990;SDS011;8100;50.994;4.538;2023-01-31T01:56:14;17.05;;;5.07;;
15990;SDS011;8100;50.994;4.538;2023-01-31T01:59:06;15.15;;;4.80;;
15990;SDS011;8100;50.994;4.538;2023-01-31T02:01:56;15.02;;;4.80;;
15990;SDS011;8100;50.994;4.538;2023-01-31T02:04:43;12.00;;;4.45;;
15990;SDS011;8100;50.994;4.538;2023-01-31T02:07:35;13.57;;;4.43;;
15990;SDS011;8100;50.994;4.538;2023-01-31T02:10:23;14.00;;;4.90;;
15990;SDS011;8100;50.994;4.538;2023-01-31T02:13:17;16.13;;;4.90;;
15990;SDS011;8100;50.994;4.538;2023-01-31T02:16:05;14.68;;;4.97;;
15990;SDS011;8100;50.994;4.538;2023-01-31T02:18:52;12.15;;;4.13;;
15990;SDS011;8100;50.994;4.538;2023-01-31T02:31:48;14.73;;;5.10;;
15990;SDS011;8100;50.994;4.538;2023-01-31T02:35:04;13.65;;;4.93;;
15990;SDS011;8100;50.994;4.538;2023-01-31T02:37:58;18.08;;;5.00;;
15990;SDS011;8100;50.994;4.538;2023-01-31T02:40:53;14.45;;;4.57;;
15990;SDS011;8100;50.994;4.538;2023-01-31T02:43:51;13.23;;;4.80;;
15990;SDS011;8100;50.994;4.538;2023-01-31T02:46:59;14.43;;;5.07;;
15990;SDS011;8100;50.994;4.538;2023-01-31T02:49:51;18.70;;;4.80;;
15990;SDS011;8100;50.994;4.538;2023-01-31T02:52:46;13.15;;;4.68;;
15990;SDS011;8100;50.994;4.538;2023-01-31T02:55:38;15.55;;;5.07;;
15990;SDS011;8100;50.994;4.538;2023-01-31T02:58:49;12.77;;;4.63;;
15990;SDS011;8100;50.994;4.538;2023-01-31T03:01:41;10.43;;;4.28;;
15990;SDS011;8100;50.994;4.538;2023-01-31T03:04:32;13.50;;;4.80;;
15990;SDS011;8100;50.994;4.538;2023-01-31T03:07:21;15.77;;;4.88;;
15990;SDS011;8100;50.994;4.538;2023-01-31T03:10:15;20.40;;;4.65;;
15990;SDS011;8100;50.994;4.538;2023-01-31T03:13:18;14.52;;;5.05;;
15990;SDS011;8100;50.994;4.538;2023-01-31T03:16:17;16.65;;;4.68;;
15990;SDS011;8100;50.994;4.538;2023-01-31T03:19:27;16.17;;;4.90;;
15990;SDS011;8100;50.994;4.538;2023-01-31T03:22:22;14.50;;;5.03;;
15990;SDS011;8100;50.994;4.538;2023-01-31T03:25:14;12.93;;;5.32;;
15990;SDS011;8100;50.994;4.538;2023-01-31T03:28:06;12.68;;;4.78;;
15990;SDS011;8100;50.994;4.538;2023-01-31T03:30:58;13.30;;;4.90;;
15990;SDS011;8100;50.994;4.538;2023-01-31T03:33:50;16.65;;;5.18;;
15990;SDS011;8100;50.994;4.538;2023-01-31T03:36:44;10.70;;;4.18;;
15990;SDS011;8100;50.994;4.538;2023-01-31T03:39:37;18.10;;;5.38;;
15990;SDS011;8100;50.994;4.538;2023-01-31T03:42:32;14.25;;;4.95;;
15990;SDS011;8100;50.994;4.538;2023-01-31T03:45:29;17.27;;;5.15;;
15990;SDS011;8100;50.994;4.538;2023-01-31T03:48:20;16.60;;;5.38;;
15990;SDS011;8100;50.994;4.538;2023-01-31T03:51:11;15.35;;;4.80;;
15990;SDS011;8100;50.994;4.538;2023-01-31T03:54:04;15.73;;;5.45;;
15990;SDS011;8100;50.994;4.538;2023-01-31T03:56:55;14.50;;;5.15;;
15990;SDS011;8100;50.994;4.538;2023-01-31T03:59:48;13.55;;;5.10;;
15990;SDS011;8100;50.994;4.538;2023-01-31T04:02:38;14.15;;;5.38;;
15990;SDS011;8100;50.994;4.538;2023-01-31T04:05:25;17.27;;;5.45;;
15990;SDS011;8100;50.994;4.538;2023-01-31T04:08:16;15.27;;;4.93;;
15990;SDS011;8100;50.994;4.538;2023-01-31T04:11:04;16.25;;;5.32;;
15990;SDS011;8100;50.994;4.538;2023-01-31T04:13:55;14.18;;;5.25;;
15990;SDS011;8100;50.994;4.538;2023-01-31T04:16:44;16.00;;;5.43;;
15990;SDS011;8100;50.994;4.538;2023-01-31T04:19:31;14.60;;;5.18;;
15990;SDS011;8100;50.994;4.538;2023-01-31T04:22:18;20.60;;;5.15;;
15990;SDS011;8100;50.994;4.538;2023-01-31T04:25:06;15.35;;;5.28;;
15990;SDS011;8100;50.994;4.538;2023-01-31T04:27:53;13.70;;;4.70;;
15990;SDS011;8100;50.994;4.538;2023-01-31T04:30:40;14.90;;;5.07;;
15990;SDS011;8100;50.994;4.538;2023-01-31T04:33:29;14.82;;;4.82;;
15990;SDS011;8100;50.994;4.538;2023-01-31T04:36:16;14.35;;;5.00;;
15990;SDS011;8100;50.994;4.538;2023-01-31T04:39:04;16.08;;;5.10;;
15990;SDS011;8100;50.994;4.538;2023-01-31T04:41:51;12.20;;;5.03;;
15990;SDS011;8100;50.994;4.538;2023-01-31T04:44:39;14.75;;;5.10;;
15990;SDS011;8100;50.994;4.538;2023-01-31T04:47:26;18.50;;;5.07;;
15990;SDS011;8100;50.994;4.538;2023-01-31T04:50:15;11.90;;;4.80;;
15990;SDS011;8100;50.994;4.538;2023-01-31T04:53:02;13.88;;;5.30;;
15990;SDS011;8100;50.994;4.538;2023-01-31T04:55:52;16.08;;;5.30;;
15990;SDS011;8100;50.994;4.538;2023-01-31T04:58:39;15.85;;;4.53;;
15990;SDS011;8100;50.994;4.538;2023-01-31T05:01:27;13.73;;;4.47;;
15990;SDS011;8100;50.994;4.538;2023-01-31T05:04:15;14.75;;;5.13;;
15990;SDS011;8100;50.994;4.538;2023-01-31T05:07:04;19.20;;;5.57;;
15990;SDS011;8100;50.994;4.538;2023-01-31T05:09:51;17.85;;;5.20;;
15990;SDS011;8100;50.994;4.538;2023-01-31T05:12:38;17.55;;;5.00;;
15990;SDS011;8100;50.994;4.538;2023-01-31T05:15:25;12.35;;;4.90;;
15990;SDS011;8100;50.994;4.538;2023-01-31T05:18:13;13.63;;;4.97;;
15990;SDS011;8100;50.994;4.538;2023-01-31T05:21:00;13.25;;;4.72;;
15990;SDS011;8100;50.994;4.538;2023-01-31T05:23:49;18.70;;;4.65;;
15990;SDS011;8100;50.994;4.538;2023-01-31T05:26:36;15.27;;;4.72;;
15990;SDS011;8100;50.994;4.538;2023-01-31T05:29:23;12.43;;;4.70;;
15990;SDS011;8100;50.994;4.538;2023-01-31T05:32:11;15.40;;;4.30;;
15990;SDS011;8100;50.994;4.538;2023-01-31T05:34:59;12.57;;;4.18;;
15990;SDS011;8100;50.994;4.538;2023-01-31T05:37:46;13.65;;;4.18;;
15990;SDS011;8100;50.994;4.538;2023-01-31T05:40:35;12.30;;;4.43;;
15990;SDS011;8100;50.994;4.538;2023-01-31T05:43:22;14.35;;;4.35;;
15990;SDS011;8100;50.994;4.538;2023-01-31T05:46:09;17.15;;;4.78;;
15990;SDS011;8100;50.994;4.538;2023-01-31T05:48:56;13.82;;;4.68;;
15990;SDS011;8100;50.994;4.538;2023-01-31T05:51:44;11.20;;;4.25;;
15990;SDS011;8100;50.994;4.538;2023-01-31T05:54:31;13.13;;;3.92;;
15990;SDS011;8100;50.994;4.538;2023-01-31T05:57:20;10.45;;;3.60;;
15990;SDS011;8100;50.994;4.538;2023-01-31T06:00:09;15.85;;;4.03;;
15990;SDS011;8100;50.994;4.538;2023-01-31T06:02:57;12.93;;;4.10;;
15990;SDS011;8100;50.994;4.538;2023-01-31T06:05:44;15.15;;;3.95;;
15990;SDS011;8100;50.994;4.538;2023-01-31T06:08:31;10.77;;;4.15;;
15990;SDS011;8100;50.994;4.538;2023-01-31T06:11:18;9.73;;;3.42;;
15990;SDS011;8100;50.994;4.538;2023-01-31T06:14:07;17.92;;;3.75;;
15990;SDS011;8100;50.994;4.538;2023-01-31T06:16:55;12.15;;;3.80;;
15990;SDS011;8100;50.994;4.538;2023-01-31T06:19:42;14.73;;;3.80;;
15990;SDS011;8100;50.994;4.538;2023-01-31T06:22:29;12.25;;;3.42;;
15990;SDS011;8100;50.994;4.538;2023-01-31T06:25:17;12.05;;;3.63;;
15990;SDS011;8100;50.994;4.538;2023-01-31T06:28:04;11.05;;;3.75;;
15990;SDS011;8100;50.994;4.538;2023-01-31T06:30:53;12.95;;;3.53;;
15990;SDS011;8100;50.994;4.538;2023-01-31T06:33:40;10.25;;;3.45;;
15990;SDS011;8100;50.994;4.538;2023-01-31T06:36:27;15.30;;;3.50;;
15990;SDS011;8100;50.994;4.538;2023-01-31T06:39:18;12.45;;;3.72;;
15990;SDS011;8100;50.994;4.538;2023-01-31T06:42:05;9.07;;;3.13;;
15990;SDS011;8100;50.994;4.538;2023-01-31T06:44:53;11.63;;;3.53;;
15990;SDS011;8100;50.994;4.538;2023-01-31T06:47:41;8.88;;;3.33;;
15990;SDS011;8100;50.994;4.538;2023-01-31T06:50:30;11.02;;;3.63;;
15990;SDS011;8100;50.994;4.538;2023-01-31T06:53:17;9.90;;;3.03;;
15990;SDS011;8100;50.994;4.538;2023-01-31T06:56:05;10.02;;;3.00;;
15990;SDS011;8100;50.994;4.538;2023-01-31T06:58:53;12.70;;;3.45;;
15990;SDS011;8100;50.994;4.538;2023-01-31T07:01:40;11.20;;;3.08;;
15990;SDS011;8100;50.994;4.538;2023-01-31T07:04:28;14.30;;;3.65;;
15990;SDS011;8100;50.994;4.538;2023-01-31T07:07:16;10.05;;;2.97;;
15990;SDS011;8100;50.994;4.538;2023-01-31T07:10:03;18.20;;;3.50;;
15990;SDS011;8100;50.994;4.538;2023-01-31T07:12:51;12.75;;;3.63;;
15990;SDS011;8100;50.994;4.538;2023-01-31T07:15:38;9.10;;;3.08;;
15990;SDS011;8100;50.994;4.538;2023-01-31T07:18:26;14.63;;;3.47;;
15990;SDS011;8100;50.994;4.538;2023-01-31T07:21:15;10.75;;;3.10;;
15990;SDS011;8100;50.994;4.538;2023-01-31T07:24:02;10.82;;;3.22;;
15990;SDS011;8100;50.994;4.538;2023-01-31T07:26:50;11.38;;;3.30;;
15990;SDS011;8100;50.994;4.538;2023-01-31T07:29:38;13.40;;;3.22;;
15990;SDS011;8100;50.994;4.538;2023-01-31T07:32:27;11.57;;;3.55;;
15990;SDS011;8100;50.994;4.538;2023-01-31T07:35:15;11.90;;;3.53;;
15990;SDS011;8100;50.994;4.538;2023-01-31T07:38:04;13.02;;;3.53;;
15990;SDS011;8100;50.994;4.538;2023-01-31T07:40:51;10.63;;;3.10;;
15990;SDS011;8100;50.994;4.538;2023-01-31T07:43:38;16.88;;;3.50;;
15990;SDS011;8100;50.994;4.538;2023-01-31T07:46:25;14.93;;;3.63;;
15990;SDS011;8100;50.994;4.538;2023-01-31T07:49:13;12.48;;;3.00;;
15990;SDS011;8100;50.994;4.538;2023-01-31T07:52:00;10.63;;;3.20;;
15990;SDS011;8100;50.994;4.538;2023-01-31T07:54:49;15.13;;;3.40;;
15990;SDS011;8100;50.994;4.538;2023-01-31T07:57:36;17.60;;;3.65;;
15990;SDS011;8100;50.994;4.538;2023-01-31T08:00:23;12.63;;;3.40;;
15990;SDS011;8100;50.994;4.538;2023-01-31T08:03:29;8.88;;;3.63;;
15990;SDS011;8100;50.994;4.538;2023-01-31T08:06:21;9.43;;;2.78;;
15990;SDS011;8100;50.994;4.538;2023-01-31T08:09:08;11.35;;;2.80;;
15990;SDS011;8100;50.994;4.538;2023-01-31T08:11:57;11.50;;;3.10;;
15990;SDS011;8100;50.994;4.538;2023-01-31T08:14:44;13.80;;;3.40;;
15990;SDS011;8100;50.994;4.538;2023-01-31T08:17:32;9.65;;;3.03;;
15990;SDS011;8100;50.994;4.538;2023-01-31T08:20:19;13.73;;;3.60;;
15990;SDS011;8100;50.994;4.538;2023-01-31T08:23:07;12.88;;;3.78;;
15990;SDS011;8100;50.994;4.538;2023-01-31T08:25:58;10.80;;;2.83;;
15990;SDS011;8100;50.994;4.538;2023-01-31T08:28:48;17.65;;;3.58;;
15990;SDS011;8100;50.994;4.538;2023-01-31T08:31:38;10.60;;;3.20;;
15990;SDS011;8100;50.994;4.538;2023-01-31T08:34:26;10.18;;;2.88;;
15990;SDS011;8100;50.994;4.538;2023-01-31T08:37:13;10.55;;;2.85;;
15990;SDS011;8100;50.994;4.538;2023-01-31T08:40:00;11.70;;;2.75;;
15990;SDS011;8100;50.994;4.538;2023-01-31T08:42:58;11.25;;;3.22;;
15990;SDS011;8100;50.994;4.538;2023-01-31T08:45:47;12.40;;;2.85;;
15990;SDS011;8100;50.994;4.538;2023-01-31T08:48:35;12.63;;;2.85;;
15990;SDS011;8100;50.994;4.538;2023-01-31T08:51:23;15.10;;;3.58;;
15990;SDS011;8100;50.994;4.538;2023-01-31T08:54:10;11.00;;;2.92;;
15990;SDS011;8100;50.994;4.538;2023-01-31T08:56:58;9.48;;;2.90;;
15990;SDS011;8100;50.994;4.538;2023-01-31T08:59:45;11.07;;;3.00;;
15990;SDS011;8100;50.994;4.538;2023-01-31T09:02:34;9.60;;;2.90;;
15990;SDS011;8100;50.994;4.538;2023-01-31T09:05:21;13.60;;;3.30;;
15990;SDS011;8100;50.994;4.538;2023-01-31T09:08:09;12.43;;;3.35;;
15990;SDS011;8100;50.994;4.538;2023-01-31T09:10:56;13.48;;;3.33;;
15990;SDS011;8100;50.994;4.538;2023-01-31T09:13:45;9.10;;;2.90;;
15990;SDS011;8100;50.994;4.538;2023-01-31T09:16:35;14.68;;;3.15;;
15990;SDS011;8100;50.994;4.538;2023-01-31T09:19:25;12.60;;;3.60;;
15990;SDS011;8100;50.994;4.538;2023-01-31T09:22:12;9.23;;;2.72;;
15990;SDS011;8100;50.994;4.538;2023-01-31T09:24:59;13.13;;;3.65;;
15990;SDS011;8100;50.994;4.538;2023-01-31T09:27:47;12.57;;;2.50;;
15990;SDS011;8100;50.994;4.538;2023-01-31T09:30:34;14.48;;;3.00;;
15990;SDS011;8100;50.994;4.538;2023-01-31T09:33:21;17.48;;;3.33;;
15990;SDS011;8100;50.994;4.538;2023-01-31T09:36:11;11.45;;;3.05;;
15990;SDS011;8100;50.994;4.538;2023-01-31T09:38:59;14.32;;;3.13;;
15990;SDS011;8100;50.994;4.538;2023-01-31T09:41:47;13.15;;;3.30;;
15990;SDS011;8100;50.994;4.538;2023-01-31T09:44:38;10.60;;;2.92;;
15990;SDS011;8100;50.994;4.538;2023-01-31T09:47:28;12.68;;;3.53;;
15990;SDS011;8100;50.994;4.538;2023-01-31T09:50:20;14.10;;;2.95;;
15990;SDS011;8100;50.994;4.538;2023-01-31T09:53:13;12.18;;;3.22;;
15990;SDS011;8100;50.994;4.538;2023-01-31T09:56:12;11.85;;;3.17;;
15990;SDS011;8100;50.994;4.538;2023-01-31T09:59:10;8.85;;;2.90;;
15990;SDS011;8100;50.994;4.538;2023-01-31T10:02:10;15.32;;;3.53;;
15990;SDS011;8100;50.994;4.538;2023-01-31T10:05:13;18.20;;;3.83;;
15990;SDS011;8100;50.994;4.538;2023-01-31T10:08:14;16.33;;;3.67;;
15990;SDS011;8100;50.994;4.538;2023-01-31T10:11:11;13.75;;;3.58;;
15990;SDS011;8100;50.994;4.538;2023-01-31T10:14:03;13.23;;;3.30;;
15990;SDS011;8100;50.994;4.538;2023-01-31T10:17:01;18.55;;;3.50;;
15990;SDS011;8100;50.994;4.538;2023-01-31T10:19:53;15.00;;;3.42;;
15990;SDS011;8100;50.994;4.538;2023-01-31T10:22:42;14.48;;;2.80;;
15990;SDS011;8100;50.994;4.538;2023-01-31T10:25:37;11.63;;;2.90;;
15990;SDS011;8100;50.994;4.538;2023-01-31T10:28:31;14.23;;;3.63;;
15990;SDS011;8100;50.994;4.538;2023-01-31T10:31:24;12.15;;;2.95;;
15990;SDS011;8100;50.994;4.538;2023-01-31T10:34:17;21.05;;;3.53;;
15990;SDS011;8100;50.994;4.538;2023-01-31T10:37:11;11.68;;;3.25;;
15990;SDS011;8100;50.994;4.538;2023-01-31T10:40:05;13.32;;;3.55;;
15990;SDS011;8100;50.994;4.538;2023-01-31T10:43:01;11.25;;;3.50;;
15990;SDS011;8100;50.994;4.538;2023-01-31T10:45:58;11.60;;;3.40;;
15990;SDS011;8100;50.994;4.538;2023-01-31T10:48:45;12.93;;;3.30;;
15990;SDS011;8100;50.994;4.538;2023-01-31T10:51:38;11.25;;;3.40;;
15990;SDS011;8100;50.994;4.538;2023-01-31T10:54:40;9.63;;;3.05;;
15990;SDS011;8100;50.994;4.538;2023-01-31T10:57:34;12.82;;;2.97;;
15990;SDS011;8100;50.994;4.538;2023-01-31T11:00:25;13.07;;;2.95;;
15990;SDS011;8100;50.994;4.538;2023-01-31T11:03:15;9.65;;;3.05;;
15990;SDS011;8100;50.994;4.538;2023-01-31T11:06:02;17.50;;;3.55;;
15990;SDS011;8100;50.994;4.538;2023-01-31T11:08:52;13.10;;;3.17;;
15990;SDS011;8100;50.994;4.538;2023-01-31T11:11:51;12.15;;;2.83;;
15990;SDS011;8100;50.994;4.538;2023-01-31T11:14:40;17.63;;;2.83;;
15990;SDS011;8100;50.994;4.538;2023-01-31T11:17:29;11.73;;;3.13;;
15990;SDS011;8100;50.994;4.538;2023-01-31T11:20:23;11.75;;;3.15;;
15990;SDS011;8100;50.994;4.538;2023-01-31T11:23:13;13.25;;;3.10;;
15990;SDS011;8100;50.994;4.538;2023-01-31T11:26:03;16.13;;;3.03;;
15990;SDS011;8100;50.994;4.538;2023-01-31T11:28:51;11.70;;;3.10;;
15990;SDS011;8100;50.994;4.538;2023-01-31T11:31:39;16.20;;;3.20;;
15990;SDS011;8100;50.994;4.538;2023-01-31T11:34:31;8.93;;;2.60;;
15990;SDS011;8100;50.994;4.538;2023-01-31T11:37:19;11.75;;;3.60;;
15990;SDS011;8100;50.994;4.538;2023-01-31T11:40:16;14.13;;;3.08;;
15990;SDS011;8100;50.994;4.538;2023-01-31T11:43:23;10.73;;;3.30;;
15990;SDS011;8100;50.994;4.538;2023-01-31T11:46:11;10.75;;;3.28;;
15990;SDS011;8100;50.994;4.538;2023-01-31T11:48:58;11.60;;;3.17;;
15990;SDS011;8100;50.994;4.538;2023-01-31T11:51:47;14.18;;;2.78;;
15990;SDS011;8100;50.994;4.538;2023-01-31T11:54:35;10.55;;;2.72;;
15990;SDS011;8100;50.994;4.538;2023-01-31T11:57:23;11.80;;;3.10;;
15990;SDS011;8100;50.994;4.538;2023-01-31T12:00:19;11.43;;;2.83;;
15990;SDS011;8100;50.994;4.538;2023-01-31T12:03:12;8.18;;;2.63;;
15990;SDS011;8100;50.994;4.538;2023-01-31T12:06:03;12.50;;;2.83;;
15990;SDS011;8100;50.994;4.538;2023-01-31T12:08:53;11.65;;;3.60;;
15990;SDS011;8100;50.994;4.538;2023-01-31T12:11:42;10.13;;;2.67;;
15990;SDS011;8100;50.994;4.538;2023-01-31T12:14:37;10.48;;;3.00;;
15990;SDS011;8100;50.994;4.538;2023-01-31T12:17:27;11.93;;;2.83;;
15990;SDS011;8100;50.994;4.538;2023-01-31T12:20:18;12.70;;;3.17;;
15990;SDS011;8100;50.994;4.538;2023-01-31T12:23:15;8.95;;;2.95;;
15990;SDS011;8100;50.994;4.538;2023-01-31T12:26:14;15.68;;;3.17;;
15990;SDS011;8100;50.994;4.538;2023-01-31T12:29:20;11.35;;;3.17;;
15990;SDS011;8100;50.994;4.538;2023-01-31T12:32:32;10.32;;;2.70;;
15990;SDS011;8100;50.994;4.538;2023-01-31T12:35:42;14.82;;;2.78;;
15990;SDS011;8100;50.994;4.538;2023-01-31T12:38:45;12.52;;;2.70;;
15990;SDS011;8100;50.994;4.538;2023-01-31T12:41:43;14.45;;;2.97;;
15990;SDS011;8100;50.994;4.538;2023-01-31T12:44:42;10.07;;;2.55;;
15990;SDS011;8100;50.994;4.538;2023-01-31T12:47:52;14.35;;;2.70;;
15990;SDS011;8100;50.994;4.538;2023-01-31T12:51:02;13.25;;;2.90;;
15990;SDS011;8100;50.994;4.538;2023-01-31T12:54:07;13.93;;;2.97;;
15990;SDS011;8100;50.994;4.538;2023-01-31T12:57:10;11.05;;;2.90;;
15990;SDS011;8100;50.994;4.538;2023-01-31T13:00:21;10.82;;;3.00;;
15990;SDS011;8100;50.994;4.538;2023-01-31T13:03:22;15.32;;;3.10;;
15990;SDS011;8100;50.994;4.538;2023-01-31T13:06:18;13.15;;;3.50;;
15990;SDS011;8100;50.994;4.538;2023-01-31T13:09:10;15.20;;;3.10;;
15990;SDS011;8100;50.994;4.538;2023-01-31T13:12:03;13.10;;;3.35;;
15990;SDS011;8100;50.994;4.538;2023-01-31T13:14:56;14.50;;;3.55;;
15990;SDS011;8100;50.994;4.538;2023-01-31T13:17:50;11.93;;;3.08;;
15990;SDS011;8100;50.994;4.538;2023-01-31T13:20:46;12.68;;;3.30;;
15990;SDS011;8100;50.994;4.538;2023-01-31T13:23:38;15.07;;;3.20;;
15990;SDS011;8100;50.994;4.538;2023-01-31T13:26:30;11.27;;;3.20;;
15990;SDS011;8100;50.994;4.538;2023-01-31T13:29:20;14.50;;;3.70;;
15990;SDS011;8100;50.994;4.538;2023-01-31T13:32:14;12.65;;;3.30;;
15990;SDS011;8100;50.994;4.538;2023-01-31T13:35:09;11.43;;;3.30;;
15990;SDS011;8100;50.994;4.538;2023-01-31T13:38:05;9.35;;;3.78;;
15990;SDS011;8100;50.994;4.538;2023-01-31T13:40:55;10.10;;;3.60;;
15990;SDS011;8100;50.994;4.538;2023-01-31T13:43:43;9.45;;;3.33;;
15990;SDS011;8100;50.994;4.538;2023-01-31T13:46:31;12.88;;;4.32;;
15990;SDS011;8100;50.994;4.538;2023-01-31T13:49:26;12.57;;;3.67;;
15990;SDS011;8100;50.994;4.538;2023-01-31T13:52:19;8.18;;;3.45;;
15990;SDS011;8100;50.994;4.538;2023-01-31T13:55:09;14.65;;;3.83;;
15990;SDS011;8100;50.994;4.538;2023-01-31T13:58:03;10.45;;;3.67;;
15990;SDS011;8100;50.994;4.538;2023-01-31T14:00:55;12.60;;;3.95;;
15990;SDS011;8100;50.994;4.538;2023-01-31T14:07:16;10.00;;;3.33;;
15990;SDS011;8100;50.994;4.538;2023-01-31T14:10:25;13.75;;;3.58;;
15990;SDS011;8100;50.994;4.538;2023-01-31T14:13:28;10.05;;;3.70;;
15990;SDS011;8100;50.994;4.538;2023-01-31T14:16:35;9.40;;;3.28;;
15990;SDS011;8100;50.994;4.538;2023-01-31T14:19:58;8.02;;;3.30;;
15990;SDS011;8100;50.994;4.538;2023-01-31T14:29:40;5.78;;;2.50;;
15990;SDS011;8100;50.994;4.538;2023-01-31T14:32:30;10.80;;;3.05;;
15990;SDS011;8100;50.994;4.538;2023-01-31T14:35:32;8.43;;;2.97;;
15990;SDS011;8100;50.994;4.538;2023-01-31T14:38:55;5.60;;;2.38;;
15990;SDS011;8100;50.994;4.538;2023-01-31T14:42:07;9.07;;;2.45;;
15990;SDS011;8100;50.994;4.538;2023-01-31T14:45:18;6.88;;;2.45;;
15990;SDS011;8100;50.994;4.538;2023-01-31T14:48:17;6.90;;;2.40;;
15990;SDS011;8100;50.994;4.538;2023-01-31T14:51:12;7.43;;;2.05;;
15990;SDS011;8100;50.994;4.538;2023-01-31T14:54:22;4.82;;;1.90;;
15990;SDS011;8100;50.994;4.538;2023-01-31T14:57:19;10.60;;;2.17;;
15990;SDS011;8100;50.994;4.538;2023-01-31T15:00:15;6.80;;;1.90;;
15990;SDS011;8100;50.994;4.538;2023-01-31T15:03:06;9.38;;;2.33;;
15990;SDS011;8100;50.994;4.538;2023-01-31T15:06:05;7.55;;;1.80;;
15990;SDS011;8100;50.994;4.538;2023-01-31T15:15:44;5.97;;;1.60;;
15990;SDS011;8100;50.994;4.538;2023-01-31T15:18:34;5.07;;;1.77;;
15990;SDS011;8100;50.994;4.538;2023-01-31T15:21:23;6.72;;;1.85;;
15990;SDS011;8100;50.994;4.538;2023-01-31T15:24:15;6.13;;;1.90;;
15990;SDS011;8100;50.994;4.538;2023-01-31T15:27:05;4.38;;;1.65;;
15990;SDS011;8100;50.994;4.538;2023-01-31T15:30:02;4.28;;;1.70;;
15990;SDS011;8100;50.994;4.538;2023-01-31T15:32:54;4.95;;;1.85;;
15990;SDS011;8100;50.994;4.538;2023-01-31T15:35:45;6.90;;;1.80;;
15990;SDS011;8100;50.994;4.538;2023-01-31T15:38:38;6.32;;;2.08;;
15990;SDS011;8100;50.994;4.538;2023-01-31T15:41:35;6.32;;;2.35;;
15990;SDS011;8100;50.994;4.538;2023-01-31T15:44:24;4.15;;;1.85;;
15990;SDS011;8100;50.994;4.538;2023-01-31T15:47:18;6.75;;;1.92;;
15990;SDS011;8100;50.994;4.538;2023-01-31T15:50:14;7.93;;;2.08;;
15990;SDS011;8100;50.994;4.538;2023-01-31T15:53:02;6.50;;;1.85;;
15990;SDS011;8100;50.994;4.538;2023-01-31T15:55:52;7.90;;;1.75;;
15990;SDS011;8100;50.994;4.538;2023-01-31T15:58:42;7.63;;;1.92;;
15990;SDS011;8100;50.994;4.538;2023-01-31T16:01:32;5.57;;;1.73;;
15990;SDS011;8100;50.994;4.538;2023-01-31T16:04:21;4.88;;;2.00;;
15990;SDS011;8100;50.994;4.538;2023-01-31T16:07:13;5.40;;;2.17;;
15990;SDS011;8100;50.994;4.538;2023-01-31T16:10:02;6.00;;;1.90;;
15990;SDS011;8100;50.994;4.538;2023-01-31T16:12:49;8.38;;;2.03;;
15990;SDS011;8100;50.994;4.538;2023-01-31T16:15:38;6.10;;;1.92;;
15990;SDS011;8100;50.994;4.538;2023-01-31T16:18:26;5.40;;;1.63;;
15990;SDS011;8100;50.994;4.538;2023-01-31T16:21:21;5.55;;;1.58;;
15990;SDS011;8100;50.994;4.538;2023-01-31T16:24:12;5.90;;;1.77;;
15990;SDS011;8100;50.994;4.538;2023-01-31T16:27:02;5.55;;;1.88;;
15990;SDS011;8100;50.994;4.538;2023-01-31T16:29:53;6.50;;;1.95;;
15990;SDS011;8100;50.994;4.538;2023-01-31T16:32:42;5.47;;;2.03;;
15990;SDS011;8100;50.994;4.538;2023-01-31T16:35:32;4.85;;;1.60;;
15990;SDS011;8100;50.994;4.538;2023-01-31T16:38:23;6.07;;;2.03;;
15990;SDS011;8100;50.994;4.538;2023-01-31T16:41:12;9.18;;;2.33;;
15990;SDS011;8100;50.994;4.538;2023-01-31T16:43:59;7.72;;;1.90;;
15990;SDS011;8100;50.994;4.538;2023-01-31T16:46:47;5.65;;;1.63;;
15990;SDS011;8100;50.994;4.538;2023-01-31T16:49:35;6.45;;;1.85;;
15990;SDS011;8100;50.994;4.538;2023-01-31T16:52:23;4.38;;;2.08;;
15990;SDS011;8100;50.994;4.538;2023-01-31T16:55:16;6.97;;;2.05;;
15990;SDS011;8100;50.994;4.538;2023-01-31T16:58:04;6.30;;;1.90;;
15990;SDS011;8100;50.994;4.538;2023-01-31T17:00:53;5.78;;;2.17;;
15990;SDS011;8100;50.994;4.538;2023-01-31T17:03:41;8.65;;;2.35;;
15990;SDS011;8100;50.994;4.538;2023-01-31T17:06:28;6.63;;;2.17;;
15990;SDS011;8100;50.994;4.538;2023-01-31T17:09:17;8.10;;;2.47;;
15990;SDS011;8100;50.994;4.538;2023-01-31T17:12:10;6.70;;;1.90;;
15990;SDS011;8100;50.994;4.538;2023-01-31T17:15:11;5.63;;;1.98;;
15990;SDS011;8100;50.994;4.538;2023-01-31T17:17:59;7.30;;;2.10;;
15990;SDS011;8100;50.994;4.538;2023-01-31T17:20:46;7.10;;;2.28;;
15990;SDS011;8100;50.994;4.538;2023-01-31T17:23:35;8.00;;;2.30;;
15990;SDS011;8100;50.994;4.538;2023-01-31T17:26:22;11.32;;;2.53;;
15990;SDS011;8100;50.994;4.538;2023-01-31T17:29:13;7.63;;;2.10;;
15990;SDS011;8100;50.994;4.538;2023-01-31T17:32:00;6.38;;;2.17;;
15990;SDS011;8100;50.994;4.538;2023-01-31T17:34:47;7.13;;;2.30;;
15990;SDS011;8100;50.994;4.538;2023-01-31T17:37:35;5.57;;;2.13;;
15990;SDS011;8100;50.994;4.538;2023-01-31T17:40:23;5.97;;;1.98;;
15990;SDS011;8100;50.994;4.538;2023-01-31T17:43:16;6.30;;;2.35;;